createdAt,value
2022-09-18T00:00:51.771Z,98379.91
2022-09-18T00:03:21.559Z,98374.63
2022-09-18T00:05:51.409Z,98384.66
2022-09-18T00:08:21.189Z,98380.00
2022-09-18T00:10:50.815Z,98383.03
2022-09-18T00:13:20.535Z,98390.88
2022-09-18T00:16:00.245Z,98392.56
2022-09-18T00:18:30.465Z,98390.09
2022-09-18T00:21:06.970Z,98395.59
2022-09-18T00:23:37.109Z,98384.97
2022-09-18T00:26:07.920Z,98388.34
2022-09-18T00:28:38.130Z,98382.69
2022-09-18T00:31:12.862Z,98389.34
2022-09-18T00:33:43.235Z,98388.63
2022-09-18T00:36:15.357Z,98378.53
2022-09-18T00:38:45.685Z,98385.41
2022-09-18T00:41:18.336Z,98386.06
2022-09-18T00:43:48.353Z,98370.50
2022-09-18T00:46:27.177Z,98381.44
2022-09-18T00:49:08.298Z,98387.97
2022-09-18T00:51:39.932Z,98383.31
2022-09-18T00:54:16.710Z,98380.34
2022-09-18T00:56:47.280Z,98391.44
2022-09-18T00:59:22.732Z,98379.53
2022-09-18T01:01:55.581Z,98388.75
2022-09-18T01:04:25.592Z,98388.50
2022-09-18T01:07:00.556Z,98389.03
2022-09-18T01:09:37.396Z,98393.16
2022-09-18T01:12:13.952Z,98389.22
2022-09-18T01:14:51.383Z,98390.44
2022-09-18T01:17:32.192Z,98390.53
2022-09-18T01:20:21.780Z,98388.88
2022-09-18T01:23:09.430Z,98393.75
2022-09-18T01:25:53.372Z,98394.59
2022-09-18T01:28:30.800Z,98406.47
2022-09-18T01:31:05.703Z,98400.31
2022-09-18T01:33:48.346Z,98396.91
2022-09-18T01:36:20.475Z,98395.63
2022-09-18T01:38:55.181Z,98395.88
2022-09-18T01:41:27.928Z,98390.44
2022-09-18T01:44:07.406Z,98390.19
2022-09-18T01:46:40.101Z,98378.44
2022-09-18T01:49:14.441Z,98383.16
2022-09-18T01:51:50.768Z,98382.00
2022-09-18T01:54:24.549Z,98378.88
2022-09-18T01:56:58.853Z,98378.44
2022-09-18T01:59:37.493Z,98371.13
2022-09-18T02:02:11.555Z,98382.88
2022-09-18T02:04:45.696Z,98368.25
2022-09-18T02:07:20.382Z,98368.28
2022-09-18T02:09:50.123Z,98369.44
2022-09-18T02:12:23.551Z,98374.31
2022-09-18T02:14:58.942Z,98360.66
2022-09-18T02:17:34.540Z,98357.16
2022-09-18T02:20:11.099Z,98357.19
2022-09-18T02:22:41.900Z,98355.31
2022-09-18T02:25:16.042Z,98359.63
2022-09-18T02:27:46.924Z,98354.47
2022-09-18T02:30:19.580Z,98358.38
2022-09-18T02:32:49.657Z,98359.72
2022-09-18T02:35:19.399Z,98358.53
2022-09-18T02:38:00.702Z,98357.25
2022-09-18T02:40:45.551Z,98354.50
2022-09-18T02:43:28.597Z,98354.34
2022-09-18T02:46:10.527Z,98357.94
2022-09-18T02:48:50.712Z,98356.28
2022-09-18T02:51:31.114Z,98359.50
2022-09-18T02:54:08.733Z,98357.59
2022-09-18T02:56:44.004Z,98355.63
2022-09-18T02:59:22.795Z,98371.25
2022-09-18T03:01:56.806Z,98369.88
2022-09-18T03:04:29.495Z,98375.50
2022-09-18T03:06:59.356Z,98371.78
2022-09-18T03:09:30.139Z,98363.19
2022-09-18T03:11:59.839Z,98352.66
2022-09-18T03:14:29.534Z,98353.88
2022-09-18T03:17:01.859Z,98348.38
2022-09-18T03:19:31.656Z,98348.00
2022-09-18T03:22:01.414Z,98343.59
2022-09-18T03:24:31.324Z,98344.84
2022-09-18T03:27:00.996Z,98342.13
2022-09-18T03:29:30.719Z,98337.88
2022-09-18T03:32:03.006Z,98329.78
2022-09-18T03:34:32.679Z,98336.81
2022-09-18T03:37:02.367Z,98332.63
2022-09-18T03:39:32.177Z,98337.66
2022-09-18T03:42:01.953Z,98338.50
2022-09-18T03:44:31.663Z,98343.97
2022-09-18T03:47:04.226Z,98344.78
2022-09-18T03:49:33.872Z,98339.28
2022-09-18T03:52:03.591Z,98350.06
2022-09-18T03:54:33.242Z,98354.03
2022-09-18T03:57:02.966Z,98357.66
2022-09-18T03:59:32.802Z,98351.88
2022-09-18T04:02:05.290Z,98356.09
2022-09-18T04:04:35.688Z,98360.97
2022-09-18T04:07:05.388Z,98357.97
2022-09-18T04:09:35.065Z,98368.81
2022-09-18T04:12:05.187Z,98367.50
2022-09-18T04:14:34.929Z,98367.50
2022-09-18T04:17:07.608Z,98360.47
2022-09-18T04:19:37.402Z,98365.66
2022-09-18T04:22:07.360Z,98363.28
2022-09-18T04:24:39.744Z,98362.03
2022-09-18T04:27:10.129Z,98357.31
2022-09-18T04:29:39.819Z,98362.03
2022-09-18T04:32:12.267Z,98361.44
2022-09-18T04:34:43.039Z,98367.59
2022-09-18T04:37:12.865Z,98369.53
2022-09-18T04:39:42.643Z,98375.31
2022-09-18T04:42:12.323Z,98370.84
2022-09-18T04:44:41.988Z,98364.56
2022-09-18T04:47:14.362Z,98364.19
2022-09-18T04:49:44.112Z,98376.69
2022-09-18T04:52:13.852Z,98363.81
2022-09-18T04:54:43.543Z,98366.13
2022-09-18T04:57:13.179Z,98364.28
2022-09-18T04:59:42.872Z,98362.84
2022-09-18T05:02:15.204Z,98365.84
2022-09-18T05:04:44.951Z,98366.25
2022-09-18T05:07:14.670Z,98371.41
2022-09-18T05:09:44.341Z,98375.25
2022-09-18T05:12:14.105Z,98372.97
2022-09-18T05:14:43.777Z,98371.47
2022-09-18T05:17:16.017Z,98372.97
2022-09-18T05:19:46.181Z,98380.88
2022-09-18T05:22:15.905Z,98389.34
2022-09-18T05:24:45.625Z,98385.25
2022-09-18T05:27:15.318Z,98386.03
2022-09-18T05:29:45.000Z,98394.69
2022-09-18T05:32:18.515Z,98389.31
2022-09-18T05:34:50.109Z,98386.06
2022-09-18T05:37:20.474Z,98383.56
2022-09-18T05:39:50.189Z,98384.50
2022-09-18T05:42:19.900Z,98384.94
2022-09-18T05:44:49.653Z,98393.59
2022-09-18T05:47:21.992Z,98399.50
2022-09-18T05:49:51.691Z,98388.44
2022-09-18T05:52:21.461Z,98393.34
2022-09-18T05:54:51.122Z,98401.34
2022-09-18T05:57:20.832Z,98401.84
2022-09-18T05:59:50.557Z,98398.22
2022-09-18T06:02:22.858Z,98400.28
2022-09-18T06:04:52.548Z,98402.63
2022-09-18T06:07:22.230Z,98413.50
2022-09-18T06:09:51.959Z,98415.16
2022-09-18T06:12:21.635Z,98409.72
2022-09-18T06:14:51.355Z,98405.84
2022-09-18T06:17:23.619Z,98395.63
2022-09-18T06:19:53.359Z,98399.81
2022-09-18T06:22:23.043Z,98401.53
2022-09-18T06:24:52.820Z,98408.75
2022-09-18T06:27:22.575Z,98415.31
2022-09-18T06:29:53.234Z,98412.47
2022-09-18T06:32:25.508Z,98416.34
2022-09-18T06:34:55.235Z,98415.31
2022-09-18T06:37:24.883Z,98413.00
2022-09-18T06:39:54.612Z,98419.91
2022-09-18T06:42:24.306Z,98408.34
2022-09-18T06:44:54.515Z,98402.75
2022-09-18T06:47:26.778Z,98397.28
2022-09-18T06:49:56.615Z,98393.81
2022-09-18T06:52:26.311Z,98399.38
2022-09-18T06:54:56.050Z,98404.41
2022-09-18T06:57:25.944Z,98406.09
2022-09-18T06:59:55.650Z,98399.97
2022-09-18T07:02:28.109Z,98414.13
2022-09-18T07:04:57.810Z,98418.25
2022-09-18T07:07:27.526Z,98416.34
2022-09-18T07:09:57.229Z,98418.25
2022-09-18T07:12:26.973Z,98416.41
2022-09-18T07:14:56.791Z,98423.19
2022-09-18T07:17:29.151Z,98414.41
2022-09-18T07:19:58.813Z,98415.00
2022-09-18T07:22:28.838Z,98422.41
2022-09-18T07:24:58.511Z,98417.09
2022-09-18T07:27:28.242Z,98411.84
2022-09-18T07:29:58.116Z,98408.47
2022-09-18T07:32:30.859Z,98424.97
2022-09-18T07:35:00.524Z,98419.59
2022-09-18T07:37:30.512Z,98424.56
2022-09-18T07:40:00.307Z,98426.13
2022-09-18T07:42:30.264Z,98427.47
2022-09-18T07:45:00.198Z,98423.38
2022-09-18T07:47:32.747Z,98429.75
2022-09-18T07:50:02.886Z,98423.50
2022-09-18T07:52:32.580Z,98424.00
2022-09-18T07:55:02.217Z,98432.06
2022-09-18T07:57:31.915Z,98435.19
2022-09-18T08:00:01.585Z,98441.78
2022-09-18T08:02:34.051Z,98437.91
2022-09-18T08:05:03.986Z,98431.69
2022-09-18T08:07:33.807Z,98434.88
2022-09-18T08:10:03.487Z,98433.41
2022-09-18T08:12:33.142Z,98433.59
2022-09-18T08:15:03.000Z,98435.06
2022-09-18T08:17:35.299Z,98447.09
2022-09-18T08:20:07.247Z,98435.22
2022-09-18T08:22:41.145Z,98448.53
2022-09-18T08:25:11.937Z,98448.28
2022-09-18T08:27:42.407Z,98443.50
2022-09-18T08:30:14.368Z,98446.59
2022-09-18T08:32:47.276Z,98446.09
2022-09-18T08:35:16.909Z,98442.66
2022-09-18T08:37:50.961Z,98443.53
2022-09-18T08:40:25.468Z,98445.84
2022-09-18T08:43:09.062Z,98440.34
2022-09-18T08:45:52.753Z,98447.28
2022-09-18T08:48:31.021Z,98448.81
2022-09-18T08:51:06.245Z,98442.94
2022-09-18T08:53:43.231Z,98443.53
2022-09-18T08:56:18.332Z,98437.31
2022-09-18T08:58:54.178Z,98447.53
2022-09-18T09:01:27.768Z,98440.16
2022-09-18T09:04:04.978Z,98433.50
2022-09-18T09:06:53.769Z,98444.63
2022-09-18T09:09:35.775Z,98450.03
2022-09-18T09:12:13.482Z,98446.63
2022-09-18T09:15:05.675Z,98450.75
2022-09-18T09:17:43.362Z,98450.69
2022-09-18T09:20:24.348Z,98459.47
2022-09-18T09:23:02.578Z,98457.44
2022-09-18T09:25:41.003Z,98445.28
2022-09-18T09:28:18.407Z,98463.28
2022-09-18T09:30:51.088Z,98454.28
2022-09-18T09:33:28.008Z,98448.13
2022-09-18T09:36:05.872Z,98458.66
2022-09-18T09:38:43.973Z,98447.75
2022-09-18T09:41:23.859Z,98450.22
2022-09-18T09:44:03.033Z,98447.94
2022-09-18T09:46:50.124Z,98446.16
2022-09-18T09:49:25.713Z,98440.16
2022-09-18T09:52:08.883Z,98446.28
2022-09-18T09:54:39.199Z,98442.31
2022-09-18T09:57:23.589Z,98439.59
2022-09-18T10:00:05.076Z,98439.19
2022-09-18T10:03:04.222Z,98441.22
2022-09-18T10:05:38.920Z,98439.41
2022-09-18T10:08:17.635Z,98447.31
2022-09-18T10:10:55.191Z,98445.09
2022-09-18T10:13:27.215Z,98441.56
2022-09-18T10:16:02.421Z,98445.06
2022-09-18T10:18:36.669Z,98444.00
2022-09-18T10:21:12.127Z,98447.50
2022-09-18T10:23:46.051Z,98438.69
2022-09-18T10:26:21.608Z,98432.03
2022-09-18T10:28:51.316Z,98434.78
2022-09-18T10:31:21.365Z,98432.47
2022-09-18T10:33:53.334Z,98435.31
2022-09-18T10:36:28.308Z,98429.94
2022-09-18T10:39:01.748Z,98426.91
2022-09-18T10:41:38.112Z,98431.00
2022-09-18T10:44:22.018Z,98429.88
2022-09-18T10:47:02.704Z,98417.78
2022-09-18T10:49:36.154Z,98422.50
2022-09-18T10:52:31.860Z,98417.06
2022-09-18T10:55:23.625Z,98412.91
2022-09-18T10:58:16.424Z,98410.97
2022-09-18T11:00:51.761Z,98409.88
2022-09-18T11:03:40.556Z,98408.34
2022-09-18T11:06:17.402Z,98409.13
2022-09-18T11:08:50.549Z,98413.03
2022-09-18T11:11:30.318Z,98409.50
2022-09-18T11:14:02.495Z,98400.81
2022-09-18T11:16:34.925Z,98403.53
2022-09-18T11:19:15.702Z,98389.63
2022-09-18T11:21:49.461Z,98386.31
2022-09-18T11:24:27.093Z,98391.00
2022-09-18T11:27:01.206Z,98381.72
2022-09-18T11:29:33.470Z,98381.38
2022-09-18T11:32:13.877Z,98372.59
2022-09-18T11:34:51.489Z,98361.06
2022-09-18T11:37:33.427Z,98372.16
2022-09-18T11:40:07.905Z,98355.88
2022-09-18T11:42:45.153Z,98356.56
2022-09-18T11:45:29.892Z,98354.13
2022-09-18T11:48:06.759Z,98352.00
2022-09-18T11:50:39.115Z,98349.59
2022-09-18T11:53:16.565Z,98345.75
2022-09-18T11:55:51.800Z,98347.28
2022-09-18T11:58:29.305Z,98342.66
2022-09-18T12:01:05.393Z,98330.47
2022-09-18T12:03:40.343Z,98337.66
2022-09-18T12:06:15.977Z,98333.13
2022-09-18T12:08:51.217Z,98336.75
2022-09-18T12:11:28.134Z,98334.88
2022-09-18T12:14:15.131Z,98347.56
2022-09-18T12:16:50.900Z,98338.56
2022-09-18T12:19:25.993Z,98330.78
2022-09-18T12:22:01.885Z,98343.66
2022-09-18T12:24:31.767Z,98333.31
2022-09-18T12:27:13.920Z,98326.31
2022-09-18T12:30:09.244Z,98317.19
2022-09-18T12:33:09.162Z,98315.72
2022-09-18T12:35:50.943Z,98321.25
2022-09-18T12:38:32.994Z,98320.88
2022-09-18T12:41:15.562Z,98314.63
2022-09-18T12:44:17.285Z,98315.00
2022-09-18T12:47:01.722Z,98305.94
2022-09-18T12:49:51.937Z,98305.59
2022-09-18T12:52:32.764Z,98293.06
2022-09-18T12:55:29.264Z,98294.19
2022-09-18T12:58:11.883Z,98297.75
2022-09-18T13:00:43.215Z,98291.44
2022-09-18T13:03:21.659Z,98285.97
2022-09-18T13:05:57.565Z,98294.25
2022-09-18T13:08:31.918Z,98286.75
2022-09-18T13:11:06.268Z,98290.28
2022-09-18T13:13:42.901Z,98294.59
2022-09-18T13:16:18.758Z,98295.81
2022-09-18T13:18:57.026Z,98301.78
2022-09-18T13:21:30.443Z,98303.81
2022-09-18T13:24:01.699Z,98298.72
2022-09-18T13:26:34.779Z,98298.38
2022-09-18T13:29:05.358Z,98297.63
2022-09-18T13:31:37.899Z,98297.25
2022-09-18T13:34:20.622Z,98296.84
2022-09-18T13:36:50.526Z,98290.94
2022-09-18T13:39:27.093Z,98290.56
2022-09-18T13:41:58.870Z,98287.44
2022-09-18T13:44:30.967Z,98283.53
2022-09-18T13:47:12.954Z,98279.19
2022-09-18T13:49:52.095Z,98274.47
2022-09-18T13:52:43.843Z,98276.84
2022-09-18T13:55:37.084Z,98277.63
2022-09-18T13:58:36.998Z,98267.44
2022-09-18T14:01:09.004Z,98275.28
2022-09-18T14:03:42.035Z,98279.22
2022-09-18T14:06:48.457Z,98271.72
2022-09-18T14:09:30.709Z,98274.50
2022-09-18T14:12:14.369Z,98273.72
2022-09-18T14:14:46.573Z,98274.09
2022-09-18T14:17:18.994Z,98263.50
2022-09-18T14:19:50.349Z,98264.69
2022-09-18T14:22:34.594Z,98277.63
2022-09-18T14:25:06.654Z,98269.38
2022-09-18T14:27:42.574Z,98269.00
2022-09-18T14:30:24.406Z,98271.34
2022-09-18T14:33:19.117Z,98270.56
2022-09-18T14:35:54.913Z,98270.16
2022-09-18T14:38:36.313Z,98265.84
2022-09-18T14:41:22.069Z,98263.50
2022-09-18T14:43:53.951Z,98250.94
2022-09-18T14:46:25.591Z,98252.91
2022-09-18T14:48:56.061Z,98250.16
2022-09-18T14:51:28.498Z,98239.94
2022-09-18T14:54:02.227Z,98238.38
2022-09-18T14:56:34.866Z,98244.28
2022-09-18T14:59:08.554Z,98245.03
2022-09-18T15:01:40.512Z,98239.16
2022-09-18T15:04:16.987Z,98240.75
2022-09-18T15:06:50.052Z,98223.06
2022-09-18T15:09:28.797Z,98228.19
2022-09-18T15:12:02.687Z,98221.94
2022-09-18T15:14:43.956Z,98223.88
2022-09-18T15:17:21.299Z,98222.72
2022-09-18T15:19:59.136Z,98224.28
2022-09-18T15:22:30.176Z,98218.78
2022-09-18T15:25:02.722Z,98220.38
2022-09-18T15:27:33.927Z,98216.84
2022-09-18T15:30:07.340Z,98219.19
2022-09-18T15:32:41.496Z,98225.84
2022-09-18T15:35:20.247Z,98227.81
2022-09-18T15:37:54.371Z,98219.97
2022-09-18T15:40:30.473Z,98224.28
2022-09-18T15:43:03.504Z,98223.50
2022-09-18T15:45:35.656Z,98231.34
2022-09-18T15:48:37.458Z,98227.41
2022-09-18T15:51:14.342Z,98218.41
2022-09-18T15:53:44.160Z,98226.66
2022-09-18T15:56:23.754Z,98219.97
2022-09-18T15:58:58.944Z,98218.41
2022-09-18T16:01:35.618Z,98218.03
2022-09-18T16:04:09.549Z,98209.00
2022-09-18T16:06:46.308Z,98205.06
2022-09-18T16:09:30.714Z,98213.72
2022-09-18T16:12:39.972Z,98203.13
2022-09-18T16:15:22.043Z,98205.47
2022-09-18T16:18:25.401Z,98201.16
2022-09-18T16:21:08.963Z,98198.41
2022-09-18T16:23:48.636Z,98195.69
2022-09-18T16:26:26.941Z,98199.97
2022-09-18T16:29:01.600Z,98199.19
2022-09-18T16:31:33.670Z,98193.31
2022-09-18T16:34:05.265Z,98193.72
2022-09-18T16:36:37.122Z,98190.56
2022-09-18T16:39:10.111Z,98190.56
2022-09-18T16:41:40.124Z,98183.09
2022-09-18T16:44:15.414Z,98180.38
2022-09-18T16:46:48.229Z,98181.56
2022-09-18T16:49:22.930Z,98183.91
2022-09-18T16:51:52.727Z,98179.59
2022-09-18T16:54:22.377Z,98178.81
2022-09-18T16:56:54.267Z,98175.28
2022-09-18T16:59:29.792Z,98166.25
2022-09-18T17:02:04.521Z,98173.31
2022-09-18T17:04:34.861Z,98173.31
2022-09-18T17:07:06.481Z,98174.09
2022-09-18T17:09:36.168Z,98166.25
2022-09-18T17:12:06.323Z,98169.00
2022-09-18T17:14:38.684Z,98170.19
2022-09-18T17:17:08.475Z,98171.34
2022-09-18T17:19:39.490Z,98159.19
2022-09-18T17:22:09.168Z,98153.72
2022-09-18T17:24:38.968Z,98156.47
2022-09-18T17:27:09.449Z,98155.28
2022-09-18T17:29:41.685Z,98155.69
2022-09-18T17:32:12.705Z,98162.34
2022-09-18T17:34:43.653Z,98154.50
2022-09-18T17:37:13.381Z,98149.03
2022-09-18T17:39:43.006Z,98148.59
2022-09-18T17:42:12.679Z,98152.53
2022-09-18T17:44:45.005Z,98142.38
2022-09-18T17:47:14.671Z,98141.97
2022-09-18T17:49:44.293Z,98147.44
2022-09-18T17:52:13.975Z,98149.41
2022-09-18T17:54:43.675Z,98141.97
2022-09-18T17:57:14.301Z,98135.69
2022-09-18T17:59:48.217Z,98138.03
2022-09-18T18:02:17.898Z,98131.75
2022-09-18T18:04:47.646Z,98139.63
2022-09-18T18:07:17.867Z,98135.69
2022-09-18T18:09:47.546Z,98144.31
2022-09-18T18:12:17.291Z,98144.69
2022-09-18T18:14:49.627Z,98138.81
2022-09-18T18:17:20.316Z,98142.38
2022-09-18T18:19:51.571Z,98142.72
2022-09-18T18:22:21.256Z,98148.22
2022-09-18T18:24:51.805Z,98150.19
2022-09-18T18:27:21.680Z,98149.81
2022-09-18T18:29:53.970Z,98147.03
2022-09-18T18:32:23.613Z,98153.31
2022-09-18T18:34:53.305Z,98151.34
2022-09-18T18:37:23.064Z,98147.84
2022-09-18T18:39:52.818Z,98147.84
2022-09-18T18:42:22.545Z,98152.94
2022-09-18T18:44:54.790Z,98144.69
2022-09-18T18:47:25.372Z,98153.72
2022-09-18T18:49:55.050Z,98141.94
2022-09-18T18:52:24.883Z,98152.53
2022-09-18T18:54:54.525Z,98152.94
2022-09-18T18:57:24.452Z,98159.19
2022-09-18T18:59:57.415Z,98155.28
2022-09-18T19:02:27.179Z,98158.41
2022-09-18T19:05:03.236Z,98154.50
2022-09-18T19:07:34.118Z,98156.44
2022-09-18T19:10:03.834Z,98159.19
2022-09-18T19:12:34.308Z,98160.34
2022-09-18T19:15:06.823Z,98162.28
2022-09-18T19:17:36.509Z,98172.84
2022-09-18T19:20:06.407Z,98169.31
2022-09-18T19:22:36.001Z,98163.03
2022-09-18T19:25:06.547Z,98150.13
2022-09-18T19:27:36.215Z,98152.47
2022-09-18T19:30:09.696Z,98146.25
2022-09-18T19:32:39.294Z,98154.88
2022-09-18T19:35:10.152Z,98153.28
2022-09-18T19:37:39.692Z,98159.19
2022-09-18T19:40:14.326Z,98159.97
2022-09-18T19:42:44.524Z,98168.97
2022-09-18T19:45:18.522Z,98162.28
2022-09-18T19:47:50.870Z,98157.63
2022-09-18T19:50:25.582Z,98166.25
2022-09-18T19:52:55.267Z,98169.38
2022-09-18T19:55:25.351Z,98174.06
2022-09-18T19:57:56.777Z,98167.78
2022-09-18T20:00:30.065Z,98177.50
2022-09-18T20:03:01.390Z,98174.75
2022-09-18T20:05:31.001Z,98176.34
2022-09-18T20:08:01.503Z,98175.53
2022-09-18T20:10:31.177Z,98184.16
2022-09-18T20:13:00.768Z,98192.75
2022-09-18T20:15:32.957Z,98177.84
2022-09-18T20:18:02.592Z,98191.09
2022-09-18T20:20:35.084Z,98191.44
2022-09-18T20:23:04.710Z,98186.75
2022-09-18T20:25:35.694Z,98205.09
2022-09-18T20:28:05.786Z,98211.25
2022-09-18T20:30:37.993Z,98206.94
2022-09-18T20:33:07.836Z,98217.81
2022-09-18T20:35:38.351Z,98215.72
2022-09-18T20:38:07.951Z,98216.88
2022-09-18T20:40:38.437Z,98219.50
2022-09-18T20:43:08.107Z,98214.66
2022-09-18T20:45:40.447Z,98218.59
2022-09-18T20:48:10.063Z,98218.72
2022-09-18T20:50:43.349Z,98216.59
2022-09-18T20:53:12.943Z,98211.06
2022-09-18T20:55:42.529Z,98213.50
2022-09-18T20:58:12.267Z,98202.19
2022-09-18T21:00:46.896Z,98195.16
2022-09-18T21:03:17.499Z,98189.63
2022-09-18T21:05:47.110Z,98181.50
2022-09-18T21:08:17.063Z,98174.75
2022-09-18T21:10:49.465Z,98170.69
2022-09-18T21:13:20.229Z,98165.13
2022-09-18T21:15:52.595Z,98171.09
2022-09-18T21:18:24.096Z,98163.69
2022-09-18T21:21:04.270Z,98166.22
2022-09-18T21:23:46.425Z,98163.28
2022-09-18T21:26:17.685Z,98153.13
2022-09-18T21:28:47.703Z,98160.94
2022-09-18T21:31:20.243Z,98160.09
2022-09-18T21:33:53.063Z,98159.03
2022-09-18T21:36:23.429Z,98154.31
2022-09-18T21:38:54.169Z,98160.59
2022-09-18T21:41:25.691Z,98160.28
2022-09-18T21:43:57.601Z,98168.84
2022-09-18T21:46:30.377Z,98164.84
2022-09-18T21:49:00.165Z,98162.88
2022-09-18T21:51:29.839Z,98156.16
2022-09-18T21:53:59.634Z,98161.66
2022-09-18T21:56:29.476Z,98152.88
2022-09-18T21:59:00.216Z,98155.19
2022-09-18T22:01:38.186Z,98159.16
2022-09-18T22:04:10.058Z,98164.66
2022-09-18T22:06:42.184Z,98165.06
2022-09-18T22:09:15.005Z,98174.19
2022-09-18T22:11:45.818Z,98177.91
2022-09-18T22:14:17.354Z,98170.91
2022-09-18T22:16:49.975Z,98177.97
2022-09-18T22:19:20.429Z,98186.09
2022-09-18T22:21:52.212Z,98184.06
2022-09-18T22:24:24.130Z,98196.16
2022-09-18T22:26:56.368Z,98193.69
2022-09-18T22:29:28.856Z,98201.13
2022-09-18T22:32:01.883Z,98199.91
2022-09-18T22:34:33.622Z,98206.13
2022-09-18T22:37:03.900Z,98206.59
2022-09-18T22:39:33.711Z,98214.50
2022-09-18T22:42:03.538Z,98224.19
2022-09-18T22:44:33.242Z,98229.22
2022-09-18T22:47:05.724Z,98225.63
2022-09-18T22:49:35.766Z,98243.25
2022-09-18T22:52:05.492Z,98233.06
2022-09-18T22:54:35.788Z,98252.84
2022-09-18T22:57:05.680Z,98258.09
2022-09-18T22:59:35.692Z,98261.16
2022-09-18T23:02:08.706Z,98265.41
2022-09-18T23:04:38.592Z,98273.16
2022-09-18T23:07:08.381Z,98276.22
2022-09-18T23:09:38.102Z,98275.22
2022-09-18T23:12:08.308Z,98286.38
2022-09-18T23:14:37.999Z,98279.97
2022-09-18T23:17:10.433Z,98282.28
2022-09-18T23:19:41.297Z,98291.44
2022-09-18T23:22:12.523Z,98289.81
2022-09-18T23:24:42.460Z,98281.97
2022-09-18T23:27:12.149Z,98281.41
2022-09-18T23:29:41.956Z,98280.38
2022-09-18T23:32:14.207Z,98297.38
2022-09-18T23:34:44.178Z,98299.34
2022-09-18T23:37:13.863Z,98317.16
2022-09-18T23:39:43.564Z,98317.47
2022-09-18T23:42:13.303Z,98322.84
2022-09-18T23:44:42.936Z,98323.25
2022-09-18T23:47:15.269Z,98333.94
2022-09-18T23:49:44.966Z,98332.91
2022-09-18T23:52:14.697Z,98323.50
2022-09-18T23:54:44.469Z,98334.88
2022-09-18T23:57:14.161Z,98335.50
2022-09-18T23:59:43.872Z,98340.38
